Arnold, Nebraska
Current Conditions -  °F | °C
As of 9:53 PM on Wednesday 26 Nov 2014 (Local Time) from KBBW Reporting Station
Broken Clouds Broken Clouds  
Wind Chill: -10°   Ceiling: 8000
Heat Index: -6°   Visibility: 10mi
Dew Point: -9°   Wind: 5mph
Humidity: 78%   Direction: 50°NE
Pressure: 30.38"   Gusts: NA
Location:  41.42°N, 100.19°W
Report Text: KBBW 270353Z AUTO 05004KT 10SM BKN080 BKN110 M06/M09 A3038 RMK AO2 SLP321 T10611094
Loading
Personal Weather Stations






























Interactive Weather Map New forecast layout! Learn more

10-Day Weather Forecast

Advertisements
Track Severe Weather on mobile